EHFD

F3-fb-1 Sea

F3-fb-1 Sea, The Netherlands
METAR EHFD 180025Z AUTO 33015KT //// // FEW012/// SCT015/// BKN019/// 13/09 Q1023 RE// W///H///
Observed Flight Rules
Oct-18 @ 00:25 UTC (20 minutes ago)
Wind Clouds
330° at 15 knots
  • Few at 1,200' AGL
  • Scattered at 1,500' AGL
  • Broken at 1,900' AGL
Temperatures Readings
Current 13°C / 55°F
Dewpoint 9°C / 48°F
Humidity 77%
Altimeter 30.21" Hg
Pressure 1023 hPa
Elevation 50
METAR EHFD 180025Z AUTO 33015KT //// // FEW012/// SCT015/// BKN019/// 13/09 Q1023 RE// W///H///
Observed Flight Rules
Oct-18 @ 00:25 UTC
(20 minutes ago)
Wind
330° at 15 knots
Clouds
  • Few at 1,200' AGL
  • Scattered at 1,500' AGL
  • Broken at 1,900' AGL
Temperature Dewpoint
13°C / 55°F 9°C / 48°F
Humidity Altimeter Pressure
77% 30.21" Hg 1023 hPa